Time;durP1;ratioP1;P1;durP2;ratioP2;P2;SDS_P1;SDS_P2;PMS_P1;PMS_P2;Temp;Humidity;BMP_temperature;BMP_pressure;BME280_temperature;BME280_humidity;BME280_pressure;Samples;Min_cycle;Max_cycle;Signal;HPM_P1;HPM_P2
2022/09/16 00:00:46;;;;;;;9.20;0.95;;;11.50;99.90;;;;;;4935171;28;20121;-75
2022/09/16 00:03:12;;;;;;;9.90;0.60;;;11.50;99.90;;;;;;4955958;28;20074;-75
2022/09/16 00:05:48;;;;;;;7.43;0.75;;;11.40;99.90;;;;;;4951953;28;20523;-75
2022/09/16 00:08:15;;;;;;;4.80;1.55;;;11.40;99.90;;;;;;4953046;28;20058;-76
2022/09/16 00:10:42;;;;;;;7.05;0.77;;;11.40;99.90;;;;;;4952320;28;20374;-76
2022/09/16 00:13:08;;;;;;;7.43;0.85;;;11.30;99.90;;;;;;4935642;28;20531;-74
2022/09/16 00:15:34;;;;;;;3.90;0.70;;;11.30;99.90;;;;;;4936862;28;20055;-74
2022/09/16 00:17:59;;;;;;;6.70;0.68;;;11.20;99.90;;;;;;4952586;28;20043;-75
2022/09/16 00:20:26;;;;;;;4.85;0.85;;;11.20;99.90;;;;;;4953010;28;20061;-74
2022/09/16 00:22:52;;;;;;;8.20;1.00;;;11.30;99.90;;;;;;4951332;28;20051;-75
2022/09/16 00:25:18;;;;;;;4.47;0.80;;;11.30;99.90;;;;;;4952866;28;20497;-73
2022/09/16 00:27:46;;;;;;;5.05;0.80;;;11.30;99.90;;;;;;4951871;28;20069;-74
2022/09/16 00:30:11;;;;;;;6.35;1.10;;;11.30;99.90;;;;;;4937393;28;20050;-74
2022/09/16 00:32:37;;;;;;;6.53;0.90;;;11.30;99.90;;;;;;4951654;28;20058;-75
2022/09/16 00:35:03;;;;;;;5.80;1.02;;;11.30;99.90;;;;;;4952740;28;20442;-74
2022/09/16 00:37:31;;;;;;;9.27;1.00;;;11.40;99.90;;;;;;4935296;28;20521;-74
2022/09/16 00:39:57;;;;;;;10.35;1.38;;;11.40;99.90;;;;;;4951653;28;20061;-74
2022/09/16 00:42:23;;;;;;;5.32;0.93;;;11.40;99.90;;;;;;4948981;29;20043;-74
2022/09/16 00:45:04;;;;;;;6.22;1.00;;;11.40;99.90;;;;;;4930536;28;20476;-73
2022/09/16 00:47:59;;;;;;;5.53;0.80;;;11.40;99.90;;;;;;4953089;28;20077;-74
2022/09/16 00:50:36;;;;;;;4.18;1.00;;;11.40;99.90;;;;;;4935951;28;20090;-73
2022/09/16 00:53:04;;;;;;;5.80;1.27;;;11.40;99.90;;;;;;4951772;28;20050;-74
2022/09/16 00:55:33;;;;;;;8.85;1.38;;;11.40;99.90;;;;;;4950928;28;20179;-74
2022/09/16 00:58:16;;;;;;;8.98;1.08;;;11.30;99.90;;;;;;4935409;28;20042;-74
2022/09/16 01:00:43;;;;;;;7.03;1.00;;;11.30;99.90;;;;;;4936843;28;20813;-74
2022/09/16 01:03:09;;;;;;;4.00;0.90;;;11.30;99.90;;;;;;4976471;28;20050;-74
2022/09/16 01:05:36;;;;;;;7.30;1.10;;;11.30;99.90;;;;;;4941574;28;20051;-74
2022/09/16 01:08:03;;;;;;;6.07;0.82;;;11.20;99.90;;;;;;4936607;28;20555;-74
2022/09/16 01:10:30;;;;;;;7.05;0.80;;;11.20;99.90;;;;;;4950696;28;20388;-73
2022/09/16 01:13:01;;;;;;;9.93;1.10;;;11.20;99.90;;;;;;4952896;28;20519;-74
2022/09/16 01:15:39;;;;;;;8.70;1.20;;;11.20;99.90;;;;;;4949916;28;20055;-73
2022/09/16 01:18:34;;;;;;;10.23;1.45;;;11.20;99.90;;;;;;4939524;28;20050;-73
2022/09/16 01:21:11;;;;;;;4.75;1.13;;;11.20;99.90;;;;;;4940030;28;20097;-74
2022/09/16 01:24:02;;;;;;;11.05;1.30;;;11.10;99.90;;;;;;4954152;28;20037;-74
2022/09/16 01:26:50;;;;;;;8.68;1.45;;;11.20;99.90;;;;;;4958668;28;20061;-74
2022/09/16 01:29:39;;;;;;;8.05;1.00;;;11.20;99.90;;;;;;4965408;28;20076;-74
2022/09/16 01:32:41;;;;;;;14.38;1.50;;;11.20;99.90;;;;;;4919738;28;20046;-73
2022/09/16 01:35:24;;;;;;;5.78;1.55;;;11.40;99.90;;;;;;4944375;28;20042;-73
2022/09/16 01:38:17;;;;;;;8.00;1.70;;;11.40;99.90;;;;;;4966120;28;20050;-75
2022/09/16 01:40:58;;;;;;;11.23;1.45;;;11.40;99.90;;;;;;4936287;28;20093;-74
2022/09/16 01:43:44;;;;;;;9.75;1.77;;;11.30;99.90;;;;;;4956314;28;20051;-74
2022/09/16 01:46:30;;;;;;;5.35;1.13;;;11.30;99.90;;;;;;4936080;28;20062;-74
2022/09/16 01:49:05;;;;;;;9.90;1.30;;;11.30;99.90;;;;;;4934439;28;20054;-74
2022/09/16 01:51:48;;;;;;;9.45;1.15;;;11.30;99.90;;;;;;4951014;28;20132;-73
2022/09/16 01:54:17;;;;;;;5.90;1.50;;;11.30;99.90;;;;;;4949168;28;20069;-73
2022/09/16 01:57:03;;;;;;;9.80;1.25;;;11.40;99.90;;;;;;4951517;28;20058;-73
2022/09/16 01:59:49;;;;;;;8.48;1.05;;;11.40;99.90;;;;;;4950614;28;20082;-73
2022/09/16 02:02:47;;;;;;;5.25;0.77;;;11.50;99.90;;;;;;4949434;28;20066;-73
2022/09/16 02:05:27;;;;;;;11.50;1.13;;;11.50;99.90;;;;;;4934546;28;20154;-74
2022/09/16 02:08:07;;;;;;;5.93;1.30;;;11.40;99.90;;;;;;4950486;28;20064;-74
2022/09/16 02:10:56;;;;;;;13.05;1.70;;;11.40;99.90;;;;;;4950154;28;20413;-73
2022/09/16 02:13:25;;;;;;;4.53;1.15;;;11.50;99.90;;;;;;4935820;28;20110;-73
2022/09/16 02:15:52;;;;;;;9.90;1.63;;;11.50;99.90;;;;;;4963417;28;20070;-73
2022/09/16 02:18:23;;;;;;;7.93;1.48;;;11.50;99.90;;;;;;4950850;28;20533;-73
2022/09/16 02:20:51;;;;;;;11.85;1.92;;;11.50;99.90;;;;;;4949804;28;20062;-74
2022/09/16 02:23:32;;;;;;;19.17;1.85;;;11.50;99.90;;;;;;4950694;28;20098;-75
2022/09/16 02:26:01;;;;;;;11.75;1.70;;;11.50;99.90;;;;;;4950371;28;20174;-74
2022/09/16 02:28:34;;;;;;;13.35;2.35;;;11.50;99.90;;;;;;4949569;28;20054;-73
2022/09/16 02:31:04;;;;;;;10.98;1.73;;;11.50;99.90;;;;;;4949833;28;20046;-74
2022/09/16 02:33:38;;;;;;;11.98;1.65;;;11.50;99.90;;;;;;4966499;28;20564;-74
2022/09/16 02:36:07;;;;;;;5.70;1.00;;;11.50;99.90;;;;;;4951587;28;20042;-74
2022/09/16 02:38:43;;;;;;;9.65;1.58;;;11.50;99.90;;;;;;4950411;28;20129;-74
2022/09/16 02:41:13;;;;;;;13.80;1.05;;;11.40;99.90;;;;;;4949986;28;20042;-74
2022/09/16 02:43:40;;;;;;;7.07;1.08;;;11.40;99.90;;;;;;4950967;28;20311;-74
2022/09/16 02:46:15;;;;;;;7.93;1.25;;;11.40;99.90;;;;;;4950217;28;20069;-74
2022/09/16 02:48:53;;;;;;;7.93;1.15;;;11.30;99.90;;;;;;4937870;28;20129;-74
2022/09/16 02:51:46;;;;;;;9.02;1.48;;;11.30;99.90;;;;;;4966203;28;20050;-73
2022/09/16 02:54:21;;;;;;;15.27;1.70;;;11.30;99.90;;;;;;4949659;28;20050;-73
2022/09/16 02:56:47;;;;;;;15.55;2.03;;;11.20;99.90;;;;;;4943262;28;20042;-74
2022/09/16 02:59:14;;;;;;;7.60;0.77;;;11.20;99.90;;;;;;4949765;28;20149;-74
2022/09/16 03:01:43;;;;;;;8.57;1.67;;;11.20;99.90;;;;;;4952156;28;20057;-73
2022/09/16 03:04:11;;;;;;;6.05;1.40;;;11.10;99.90;;;;;;4953962;28;20066;-73
2022/09/16 03:06:38;;;;;;;10.77;1.60;;;11.20;99.90;;;;;;4948251;28;20062;-74
2022/09/16 03:09:07;;;;;;;6.53;1.15;;;11.10;99.90;;;;;;4938482;28;20654;-72
2022/09/16 03:11:54;;;;;;;7.43;1.13;;;11.20;99.90;;;;;;4952849;28;20051;-73
2022/09/16 03:14:41;;;;;;;7.70;1.27;;;11.20;99.90;;;;;;4954420;28;20130;-73
2022/09/16 03:17:41;;;;;;;11.75;1.05;;;11.10;99.90;;;;;;4953503;28;20117;-73
2022/09/16 03:20:20;;;;;;;6.45;1.05;;;11.10;99.90;;;;;;4959237;28;20043;-73
2022/09/16 03:22:52;;;;;;;7.63;0.98;;;11.10;99.90;;;;;;4954930;28;20050;-73
2022/09/16 03:25:38;;;;;;;7.15;1.15;;;11.10;99.90;;;;;;4952962;28;20163;-73
2022/09/16 03:28:19;;;;;;;10.48;1.35;;;11.10;99.90;;;;;;4952476;28;20086;-74
2022/09/16 03:30:57;;;;;;;10.75;1.52;;;11.10;99.90;;;;;;4954169;28;20050;-73
2022/09/16 03:33:34;;;;;;;8.93;1.50;;;11.10;99.90;;;;;;4952761;28;20397;-73
2022/09/16 03:36:04;;;;;;;10.10;1.40;;;11.10;99.90;;;;;;4954571;28;20067;-73
2022/09/16 03:38:32;;;;;;;11.70;1.40;;;11.10;99.90;;;;;;4950027;28;20592;-74
2022/09/16 03:40:58;;;;;;;17.60;1.60;;;11.10;99.90;;;;;;4947704;28;20463;-74
2022/09/16 03:43:24;;;;;;;6.57;1.45;;;11.10;99.90;;;;;;4953526;28;20039;-72
2022/09/16 03:45:50;;;;;;;9.35;1.60;;;11.10;99.90;;;;;;4953248;28;20720;-74
2022/09/16 03:48:16;;;;;;;10.85;1.45;;;11.10;99.90;;;;;;4953857;28;20078;-73
2022/09/16 03:50:42;;;;;;;14.00;1.88;;;11.10;99.90;;;;;;4930362;28;20077;-73
2022/09/16 03:53:08;;;;;;;8.73;1.52;;;11.10;99.90;;;;;;4954106;28;20484;-74
2022/09/16 03:55:34;;;;;;;7.90;1.17;;;11.10;99.90;;;;;;4936066;28;20077;-73
2022/09/16 03:57:59;;;;;;;13.82;1.73;;;11.00;99.90;;;;;;4954005;28;20127;-73
2022/09/16 04:00:27;;;;;;;9.30;1.10;;;11.00;99.90;;;;;;4951120;28;20095;-73
2022/09/16 04:02:53;;;;;;;6.32;1.23;;;11.00;99.90;;;;;;4953429;28;20050;-73
2022/09/16 04:05:19;;;;;;;10.90;1.30;;;11.00;99.90;;;;;;4953967;28;20113;-74
2022/09/16 04:07:47;;;;;;;8.82;1.27;;;10.90;99.90;;;;;;4951854;28;20493;-73
2022/09/16 04:10:13;;;;;;;11.55;2.72;;;10.90;99.90;;;;;;4952343;28;20096;-73
2022/09/16 04:12:38;;;;;;;8.50;1.60;;;10.90;99.90;;;;;;4935271;28;20047;-73
2022/09/16 04:15:04;;;;;;;6.03;1.30;;;10.90;99.90;;;;;;4953935;28;20050;-73
2022/09/16 04:17:31;;;;;;;10.23;2.35;;;10.80;99.90;;;;;;4951473;28;20054;-73
2022/09/16 04:19:57;;;;;;;12.40;1.98;;;10.70;99.90;;;;;;4952804;28;20093;-73
2022/09/16 04:22:23;;;;;;;17.60;2.05;;;10.70;99.90;;;;;;4937268;28;20074;-72
2022/09/16 04:24:48;;;;;;;12.73;1.58;;;10.70;99.90;;;;;;4922660;28;20065;-73
2022/09/16 04:27:14;;;;;;;9.18;1.45;;;10.70;99.90;;;;;;4937534;28;20390;-73
2022/09/16 04:29:40;;;;;;;16.02;1.90;;;10.60;99.90;;;;;;4935181;28;20050;-73
2022/09/16 04:32:05;;;;;;;7.75;1.38;;;10.60;99.90;;;;;;4944459;28;20097;-73
2022/09/16 04:34:32;;;;;;;8.18;1.40;;;10.60;99.90;;;;;;4951286;28;20382;-72
2022/09/16 04:36:58;;;;;;;10.30;1.42;;;10.70;99.90;;;;;;4951511;28;20050;-72
2022/09/16 04:39:23;;;;;;;9.65;1.65;;;10.70;99.90;;;;;;4968169;28;20038;-73
2022/09/16 04:41:49;;;;;;;17.98;1.92;;;10.70;99.90;;;;;;4952195;28;20047;-73
2022/09/16 04:44:15;;;;;;;11.32;1.75;;;10.70;99.90;;;;;;4953120;28;20051;-73
2022/09/16 04:46:41;;;;;;;13.40;2.13;;;10.70;99.90;;;;;;4951000;28;20039;-72
2022/09/16 04:49:06;;;;;;;10.38;1.63;;;10.70;99.90;;;;;;4937108;28;20478;-72
2022/09/16 04:51:32;;;;;;;13.80;2.13;;;10.70;99.90;;;;;;4967068;28;20110;-72
2022/09/16 04:54:00;;;;;;;14.80;1.83;;;10.80;99.90;;;;;;4953468;28;20070;-73
2022/09/16 04:56:28;;;;;;;13.00;2.38;;;10.70;99.90;;;;;;4939665;28;20134;-72
2022/09/16 04:58:57;;;;;;;13.25;2.90;;;10.70;99.90;;;;;;4952646;28;20055;-72
2022/09/16 05:01:26;;;;;;;14.75;2.22;;;10.70;99.90;;;;;;4952924;28;20129;-72
2022/09/16 05:03:54;;;;;;;9.95;2.20;;;10.80;99.90;;;;;;4950535;28;20109;-72
2022/09/16 05:06:21;;;;;;;14.20;4.25;;;10.80;99.90;;;;;;4952162;28;20046;-72
2022/09/16 05:08:49;;;;;;;11.52;2.60;;;10.90;99.90;;;;;;4966318;28;20051;-72
2022/09/16 05:11:18;;;;;;;13.90;3.03;;;10.90;99.90;;;;;;4953033;28;20073;-72
2022/09/16 05:13:44;;;;;;;13.95;1.75;;;10.90;99.90;;;;;;4951153;28;20078;-72
2022/09/16 05:16:12;;;;;;;9.43;1.70;;;10.90;99.90;;;;;;4968092;28;20039;-72
2022/09/16 05:18:39;;;;;;;11.30;1.77;;;10.90;99.90;;;;;;4951538;28;20548;-72
2022/09/16 05:21:07;;;;;;;12.00;1.85;;;11.00;99.90;;;;;;4935274;28;20043;-72
2022/09/16 05:23:33;;;;;;;8.02;1.83;;;11.00;99.90;;;;;;4950973;28;20412;-72
2022/09/16 05:26:08;;;;;;;8.85;1.58;;;11.00;99.90;;;;;;4966766;28;20051;-73
2022/09/16 05:28:34;;;;;;;8.38;1.45;;;11.00;99.90;;;;;;4943204;28;20050;-72
2022/09/16 05:31:15;;;;;;;17.05;1.95;;;11.10;99.90;;;;;;4950465;28;20047;-73
2022/09/16 05:33:44;;;;;;;9.95;1.67;;;11.10;99.90;;;;;;4951069;28;20070;-72
2022/09/16 05:36:15;;;;;;;16.25;1.85;;;11.00;99.90;;;;;;4936681;28;20050;-72
2022/09/16 05:38:41;;;;;;;12.85;3.40;;;11.10;99.90;;;;;;4943471;28;20050;-72
2022/09/16 05:41:07;;;;;;;12.20;3.65;;;11.00;99.90;;;;;;4936134;28;20054;-72
2022/09/16 05:43:34;;;;;;;14.00;3.72;;;11.00;99.90;;;;;;4934439;28;20047;-72
2022/09/16 05:46:00;;;;;;;11.23;2.88;;;11.10;99.90;;;;;;4952290;28;20477;-72
2022/09/16 05:48:27;;;;;;;9.95;2.10;;;11.20;99.90;;;;;;4945413;28;20055;-72
2022/09/16 05:50:54;;;;;;;15.52;2.50;;;11.30;99.90;;;;;;4951056;28;20034;-72
2022/09/16 05:53:21;;;;;;;8.30;2.08;;;11.40;99.90;;;;;;4951653;28;20051;-72
2022/09/16 05:55:59;;;;;;;15.80;3.70;;;11.30;99.90;;;;;;4917826;28;20130;-72
2022/09/16 05:58:26;;;;;;;15.02;3.90;;;11.40;99.90;;;;;;4952029;28;20057;-72
2022/09/16 06:00:57;;;;;;;11.45;2.00;;;11.40;99.90;;;;;;4949865;28;20047;-72
2022/09/16 06:03:22;;;;;;;15.18;2.30;;;11.50;99.90;;;;;;4951953;28;20075;-72
2022/09/16 06:05:48;;;;;;;13.63;2.10;;;11.60;99.90;;;;;;4963464;28;20053;-72
2022/09/16 06:08:14;;;;;;;6.53;1.40;;;11.50;99.90;;;;;;4942692;29;20065;-72
2022/09/16 06:10:41;;;;;;;11.93;1.90;;;11.60;99.90;;;;;;4972773;28;20125;-72
2022/09/16 06:13:07;;;;;;;12.30;1.98;;;11.60;99.90;;;;;;4968634;28;20085;-73
2022/09/16 06:15:34;;;;;;;8.98;1.92;;;11.70;99.90;;;;;;4986206;28;20030;-72
2022/09/16 06:18:00;;;;;;;13.40;2.30;;;11.80;99.90;;;;;;4956063;28;20083;-72
2022/09/16 06:20:26;;;;;;;16.20;2.72;;;11.90;99.90;;;;;;4951087;28;20051;-72
2022/09/16 06:22:52;;;;;;;14.32;2.20;;;11.90;99.90;;;;;;4941547;28;20511;-72
2022/09/16 06:25:18;;;;;;;10.40;2.22;;;11.90;99.90;;;;;;4947823;28;20054;-72
2022/09/16 06:27:43;;;;;;;17.17;2.83;;;11.90;99.90;;;;;;4956041;28;20121;-72
2022/09/16 06:30:09;;;;;;;19.35;3.03;;;12.10;99.90;;;;;;4950242;28;20047;-73
2022/09/16 06:32:36;;;;;;;18.50;3.60;;;12.10;99.90;;;;;;4950806;28;20485;-73
2022/09/16 06:35:02;;;;;;;16.90;4.32;;;12.20;99.90;;;;;;4949556;28;20881;-73
2022/09/16 06:37:28;;;;;;;14.35;2.95;;;12.20;99.90;;;;;;4947598;28;20054;-72
2022/09/16 06:39:54;;;;;;;19.83;3.10;;;12.20;99.90;;;;;;4944470;28;20410;-71
2022/09/16 06:42:20;;;;;;;17.10;2.58;;;12.30;99.90;;;;;;4966900;28;20365;-73
2022/09/16 06:44:45;;;;;;;13.45;2.30;;;12.20;99.90;;;;;;4941465;28;20050;-71
2022/09/16 06:47:11;;;;;;;14.15;2.80;;;12.30;99.90;;;;;;4946295;28;20073;-73
2022/09/16 06:49:37;;;;;;;10.85;1.80;;;12.30;99.90;;;;;;4950250;28;20047;-72
2022/09/16 06:52:02;;;;;;;16.58;2.80;;;12.40;99.90;;;;;;4927397;29;20138;-73
2022/09/16 06:54:28;;;;;;;14.05;1.67;;;12.60;99.90;;;;;;4936916;28;20214;-72
2022/09/16 06:56:54;;;;;;;12.60;1.58;;;12.80;99.90;;;;;;4948864;28;20043;-72
2022/09/16 06:59:19;;;;;;;16.70;1.85;;;13.00;99.90;;;;;;4931574;29;20050;-72
2022/09/16 07:01:45;;;;;;;12.35;2.10;;;13.10;99.90;;;;;;4949550;28;20166;-72
2022/09/16 07:04:12;;;;;;;13.23;2.63;;;13.30;99.90;;;;;;4968010;28;20042;-71
2022/09/16 07:06:38;;;;;;;12.65;2.03;;;13.40;99.90;;;;;;4983549;28;20089;-71
2022/09/16 07:09:05;;;;;;;17.80;2.40;;;13.50;99.90;;;;;;4961076;28;20105;-71
2022/09/16 07:11:31;;;;;;;12.25;2.17;;;13.50;99.90;;;;;;4986005;28;20035;-71
2022/09/16 07:13:59;;;;;;;15.52;1.83;;;13.60;99.90;;;;;;4965616;28;20035;-72
2022/09/16 07:16:25;;;;;;;12.85;2.05;;;13.80;99.90;;;;;;4984204;28;20053;-72
2022/09/16 07:18:53;;;;;;;16.90;2.40;;;13.80;99.90;;;;;;4960122;28;20070;-71
2022/09/16 07:21:20;;;;;;;10.02;2.05;;;13.90;99.90;;;;;;4949377;28;20114;-71
2022/09/16 07:23:47;;;;;;;16.38;2.13;;;14.00;99.90;;;;;;4966515;28;20496;-71
2022/09/16 07:26:22;;;;;;;12.38;3.38;;;14.20;99.90;;;;;;4949628;28;20062;-71
2022/09/16 07:28:49;;;;;;;13.73;2.50;;;13.90;99.90;;;;;;4933075;29;20052;-72
2022/09/16 07:31:17;;;;;;;17.45;2.70;;;13.50;99.90;;;;;;4948178;28;20126;-72
2022/09/16 07:33:46;;;;;;;12.13;3.65;;;13.30;99.90;;;;;;4950024;28;20027;-72
2022/09/16 07:36:14;;;;;;;16.55;3.47;;;13.10;99.90;;;;;;4947679;28;20109;-71
2022/09/16 07:38:40;;;;;;;14.98;3.55;;;13.10;99.90;;;;;;4950779;28;20042;-71
2022/09/16 07:41:12;;;;;;;13.45;3.13;;;13.10;99.90;;;;;;4961266;28;20096;-72
2022/09/16 07:43:40;;;;;;;11.73;2.13;;;13.40;99.90;;;;;;4939349;28;20038;-71
2022/09/16 07:46:07;;;;;;;14.27;3.35;;;13.60;99.90;;;;;;4952125;28;20075;-70
2022/09/16 07:48:33;;;;;;;19.83;3.95;;;13.80;99.90;;;;;;4951482;28;20058;-70
2022/09/16 07:51:01;;;;;;;17.48;2.78;;;14.10;99.90;;;;;;4937390;28;20477;-72
2022/09/16 07:53:28;;;;;;;13.93;2.40;;;14.30;97.70;;;;;;4952128;28;20059;-71
2022/09/16 07:56:02;;;;;;;18.08;2.80;;;14.50;99.90;;;;;;4969213;28;20050;-71
2022/09/16 07:58:28;;;;;;;16.88;3.05;;;14.70;99.90;;;;;;4982592;28;20093;-72
2022/09/16 08:00:54;;;;;;;15.25;2.92;;;14.80;97.40;;;;;;4950328;28;20057;-71
2022/09/16 08:03:20;;;;;;;14.82;2.58;;;15.00;97.10;;;;;;4951432;28;20114;-71
2022/09/16 08:05:46;;;;;;;15.52;2.60;;;15.10;95.50;;;;;;4951949;28;20455;-70
2022/09/16 08:08:11;;;;;;;23.48;3.40;;;15.20;93.60;;;;;;4921668;28;21910;-70
2022/09/16 08:10:37;;;;;;;14.82;2.95;;;15.30;94.40;;;;;;4962574;28;20051;-70
2022/09/16 08:13:05;;;;;;;14.82;2.90;;;15.40;93.20;;;;;;4965427;28;20057;-70
2022/09/16 08:15:30;;;;;;;12.15;2.63;;;15.40;90.20;;;;;;4969411;28;20050;-70
2022/09/16 08:17:56;;;;;;;19.73;3.38;;;15.50;77.40;;;;;;4952349;28;20057;-70
2022/09/16 08:20:23;;;;;;;10.68;2.78;;;15.50;74.50;;;;;;4953503;28;20043;-69
2022/09/16 08:22:49;;;;;;;7.68;1.55;;;15.60;76.90;;;;;;4978729;28;20046;-70
2022/09/16 08:25:14;;;;;;;15.32;2.42;;;15.60;57.20;;;;;;4962837;28;20447;-70
2022/09/16 08:27:40;;;;;;;13.82;2.05;;;15.60;70.00;;;;;;4951318;28;20210;-70
2022/09/16 08:30:06;;;;;;;11.73;2.65;;;15.60;63.80;;;;;;4968974;28;20054;-70
2022/09/16 08:32:32;;;;;;;12.10;2.88;;;15.70;66.20;;;;;;4963019;28;20103;-69
2022/09/16 08:34:58;;;;;;;12.77;2.85;;;15.70;51.60;;;;;;4969942;28;20459;-69
2022/09/16 08:37:24;;;;;;;19.10;3.25;;;15.70;68.30;;;;;;4988483;28;20046;-70
2022/09/16 08:39:50;;;;;;;15.63;2.47;;;15.80;43.50;;;;;;4971843;28;20034;-69
2022/09/16 08:42:29;;;;;;;13.40;2.47;;;15.80;52.10;;;;;;4977078;28;20055;-70
2022/09/16 08:45:20;;;;;;;10.47;2.17;;;15.80;58.20;;;;;;4942721;28;20083;-70
2022/09/16 08:48:18;;;;;;;13.73;2.58;;;15.80;53.30;;;;;;4959456;28;20058;-70
2022/09/16 08:50:48;;;;;;;10.02;2.17;;;15.80;42.70;;;;;;4970442;28;20118;-69
2022/09/16 08:53:44;;;;;;;15.13;3.08;;;15.90;56.00;;;;;;4964880;28;20093;-69
2022/09/16 08:56:14;;;;;;;19.17;3.20;;;16.00;53.70;;;;;;4936540;28;20186;-70
2022/09/16 08:58:43;;;;;;;;;;;16.00;69.70;;;;;;4951005;28;20051;-69
2022/09/16 09:01:17;;;;;;;13.05;2.90;;;15.50;93.40;;;;;;4951833;28;19922;-69
2022/09/16 09:03:45;;;;;;;19.08;3.33;;;14.70;98.20;;;;;;4951749;28;20485;-69
2022/09/16 09:06:29;;;;;;;16.30;3.47;;;14.20;99.90;;;;;;4950816;28;20054;-69
2022/09/16 09:09:26;;;;;;;17.80;2.28;;;14.00;99.90;;;;;;4951902;28;20061;-69
2022/09/16 09:12:06;;;;;;;13.05;2.67;;;14.00;99.90;;;;;;4951865;28;20050;-69
2022/09/16 09:15:03;;;;;;;17.10;2.80;;;13.90;99.90;;;;;;4948361;28;20042;-69
2022/09/16 09:17:43;;;;;;;15.60;2.65;;;13.80;99.90;;;;;;4952340;28;20050;-70
2022/09/16 09:20:27;;;;;;;16.25;2.58;;;13.60;99.90;;;;;;4950538;28;20046;-70
2022/09/16 09:23:08;;;;;;;15.10;2.35;;;13.40;99.90;;;;;;4951595;28;20173;-70
2022/09/16 09:26:12;;;;;;;19.02;3.47;;;13.30;99.90;;;;;;4960056;28;20161;-70
2022/09/16 09:28:56;;;;;;;14.10;3.03;;;13.60;99.90;;;;;;4950751;28;20070;-69
2022/09/16 09:31:56;;;;;;;17.95;3.00;;;14.20;99.90;;;;;;4968838;28;20556;-70
2022/09/16 09:34:49;;;;;;;10.57;2.70;;;14.60;99.90;;;;;;4968648;28;20379;-70
2022/09/16 09:37:34;;;;;;;15.45;2.92;;;14.90;97.50;;;;;;4940732;28;20070;-70
2022/09/16 09:40:12;;;;;;;14.80;3.08;;;15.20;95.90;;;;;;4951533;28;20217;-69
2022/09/16 09:43:04;;;;;;;14.32;3.20;;;15.40;97.20;;;;;;4951915;28;20051;-69
2022/09/16 09:45:35;;;;;;;15.88;2.92;;;15.60;93.00;;;;;;4949326;28;20123;-69
2022/09/16 09:48:25;;;;;;;16.25;3.80;;;15.90;94.10;;;;;;4968603;28;20043;-68
2022/09/16 09:50:52;;;;;;;11.20;2.63;;;15.40;95.90;;;;;;4948073;29;20106;-69
2022/09/16 09:53:30;;;;;;;12.98;1.95;;;14.30;99.90;;;;;;4947186;28;20054;-69
2022/09/16 09:56:30;;;;;;;9.15;2.25;;;13.60;99.90;;;;;;4950121;28;20097;-69
2022/09/16 09:59:24;;;;;;;8.02;1.63;;;13.20;99.90;;;;;;4937210;28;20074;-69
2022/09/16 10:01:54;;;;;;;6.20;1.38;;;13.10;94.30;;;;;;4934891;28;20142;-68
2022/09/16 10:04:29;;;;;;;8.35;1.73;;;13.10;91.50;;;;;;4951575;28;20058;-68
2022/09/16 10:06:57;;;;;;;9.63;2.75;;;13.20;90.50;;;;;;4946876;28;20146;-69
2022/09/16 10:09:24;;;;;;;10.23;2.10;;;13.50;94.40;;;;;;4934974;28;20073;-69
2022/09/16 10:11:54;;;;;;;11.50;2.50;;;13.90;96.40;;;;;;4982404;28;20149;-69
2022/09/16 10:14:26;;;;;;;10.18;2.50;;;14.30;99.90;;;;;;4965607;28;20054;-69
2022/09/16 10:16:53;;;;;;;6.57;1.95;;;14.60;94.90;;;;;;4964432;28;20046;-69
2022/09/16 10:19:25;;;;;;;9.48;2.42;;;14.80;89.70;;;;;;4964385;28;20583;-69
2022/09/16 10:22:17;;;;;;;17.73;2.50;;;15.10;97.30;;;;;;4987178;28;20117;-69
2022/09/16 10:24:43;;;;;;;11.10;2.17;;;15.50;92.70;;;;;;4963443;28;20089;-69
2022/09/16 10:27:19;;;;;;;9.73;2.72;;;15.80;91.70;;;;;;4950268;28;20077;-69
2022/09/16 10:29:45;;;;;;;8.90;1.90;;;16.10;96.00;;;;;;4965081;28;20441;-67
2022/09/16 10:32:17;;;;;;;6.95;1.90;;;15.80;75.20;;;;;;4965981;28;20049;-68
2022/09/16 10:34:44;;;;;;;6.68;1.77;;;15.00;84.20;;;;;;4963473;28;20046;-68
2022/09/16 10:37:11;;;;;;;8.48;2.35;;;14.50;82.50;;;;;;4932071;28;20146;-67
2022/09/16 10:39:58;;;;;;;10.25;1.75;;;14.20;88.60;;;;;;4962657;28;20042;-68
2022/09/16 10:42:26;;;;;;;9.10;2.17;;;14.20;83.70;;;;;;4968643;28;20046;-68
2022/09/16 10:44:55;;;;;;;11.32;2.05;;;14.30;89.20;;;;;;4933157;28;20097;-68
2022/09/16 10:47:24;;;;;;;12.88;2.33;;;14.60;93.80;;;;;;4949650;28;20057;-68
2022/09/16 10:49:54;;;;;;;10.37;2.43;;;15.00;97.80;;;;;;4947499;28;20047;-69
2022/09/16 10:52:23;;;;;;;11.88;2.50;;;15.40;99.10;;;;;;4948784;28;20062;-68
2022/09/16 10:54:49;;;;;;;13.38;2.88;;;15.70;82.70;;;;;;4954326;28;20046;-68
2022/09/16 10:57:29;;;;;;;13.27;2.63;;;16.00;93.20;;;;;;4966936;28;20065;-68
2022/09/16 11:00:20;;;;;;;14.18;2.33;;;16.10;71.00;;;;;;4950581;28;20062;-68
2022/09/16 11:03:18;;;;;;;11.70;2.80;;;16.20;73.90;;;;;;4958729;28;20151;-68
2022/09/16 11:06:08;;;;;;;18.80;3.17;;;16.30;70.20;;;;;;4968651;28;20046;-68
2022/09/16 11:08:33;;;;;;;;;;;16.30;73.00;;;;;;4946364;28;20524;-68
2022/09/16 11:11:14;;;;;;;14.25;3.65;;;16.40;78.00;;;;;;4949882;28;19922;-68
2022/09/16 11:14:27;;;;;;;15.80;3.05;;;16.20;45.60;;;;;;4978807;28;20453;-69
2022/09/16 11:17:20;;;;;;;14.95;3.33;;;16.10;46.20;;;;;;4910897;29;20064;-68
2022/09/16 11:19:45;;;;;;;19.90;4.03;;;16.10;56.60;;;;;;4952653;28;20789;-68
2022/09/16 11:22:38;;;;;;;14.70;2.97;;;16.10;63.10;;;;;;4980278;28;20121;-68
2022/09/16 11:25:50;;;;;;;12.10;2.60;;;16.20;64.20;;;;;;4961919;28;20181;-68
2022/09/16 11:28:49;;;;;;;18.10;2.70;;;16.20;41.60;;;;;;4952299;28;20054;-68
2022/09/16 11:31:25;;;;;;;;;;;16.40;53.60;;;;;;4983529;28;20039;-68
2022/09/16 11:34:28;;;;;;;19.77;3.80;;;16.50;51.70;;;;;;4961741;28;20462;-68
2022/09/16 11:37:24;;;;;;;29.45;4.40;;;16.40;45.60;;;;;;4979321;28;20569;-69
2022/09/16 11:39:52;;;;;;;16.73;3.67;;;16.40;66.60;;;;;;4980671;28;20945;-68
2022/09/16 11:42:31;;;;;;;16.90;4.28;;;16.40;52.70;;;;;;4974957;28;20057;-68
2022/09/16 11:45:06;;;;;;;27.08;4.72;;;16.30;46.70;;;;;;4980910;28;20047;-68
2022/09/16 11:48:09;;;;;;;63.63;6.35;;;16.40;49.80;;;;;;4984027;28;20038;-68
2022/09/16 11:51:05;;;;;;;22.02;4.10;;;16.30;44.90;;;;;;4961381;28;20492;-68
2022/09/16 11:54:16;;;;;;;31.83;4.93;;;16.30;53.10;;;;;;4982631;28;20050;-68
2022/09/16 11:56:45;;;;;;;21.05;4.00;;;16.20;49.80;;;;;;4952664;28;20054;-68
2022/09/16 11:59:40;;;;;;;22.55;4.38;;;16.10;64.60;;;;;;4980996;28;20058;-68
2022/09/16 12:02:14;;;;;;;21.05;4.65;;;16.10;55.70;;;;;;4942370;28;20478;-68
2022/09/16 12:04:49;;;;;;;18.55;4.10;;;16.10;55.70;;;;;;4951722;28;20142;-68
2022/09/16 12:07:26;;;;;;;17.23;3.42;;;16.10;54.20;;;;;;4969005;28;20576;-68
2022/09/16 12:10:26;;;;;;;21.42;3.78;;;16.10;51.60;;;;;;4969227;28;20493;-68
2022/09/16 12:13:02;;;;;;;21.17;4.35;;;16.00;61.00;;;;;;4943628;28;20064;-69
2022/09/16 12:15:34;;;;;;;27.70;6.30;;;16.00;54.10;;;;;;4966126;28;20524;-69
2022/09/16 12:18:09;;;;;;;21.67;4.93;;;15.90;61.20;;;;;;4980121;28;20069;-69
2022/09/16 12:20:50;;;;;;;29.50;5.05;;;15.90;64.10;;;;;;4985494;28;20136;-69
2022/09/16 12:23:27;;;;;;;30.25;5.00;;;15.80;57.60;;;;;;4940752;28;20055;-69
2022/09/16 12:26:13;;;;;;;23.08;6.20;;;15.80;60.00;;;;;;4951029;28;20051;-69
2022/09/16 12:28:54;;;;;;;18.50;4.30;;;15.70;54.10;;;;;;4949928;28;20062;-71
2022/09/16 12:31:36;;;;;;;21.98;5.18;;;15.70;57.70;;;;;;4947634;28;20053;-69
2022/09/16 12:34:43;;;;;;;20.88;3.05;;;15.70;53.90;;;;;;4948515;28;20062;-69
2022/09/16 12:37:08;;;;;;;20.30;4.35;;;15.60;75.20;;;;;;4949491;28;20058;-69
2022/09/16 12:39:34;;;;;;;21.27;4.38;;;15.60;84.60;;;;;;4944638;28;20101;-69
2022/09/16 12:42:34;;;;;;;20.55;3.72;;;15.60;87.30;;;;;;4958039;28;20042;-69
2022/09/16 12:45:06;;;;;;;16.70;3.67;;;15.60;79.90;;;;;;4985344;28;20093;-69
2022/09/16 12:48:14;;;;;;;17.80;3.65;;;15.60;76.80;;;;;;4979805;28;20058;-69
2022/09/16 12:51:12;;;;;;;19.23;3.08;;;15.60;79.80;;;;;;4964060;28;20049;-69
2022/09/16 12:54:25;;;;;;;17.00;3.50;;;15.50;80.50;;;;;;4960781;28;20128;-69
2022/09/16 12:57:28;;;;;;;11.38;2.47;;;15.60;79.80;;;;;;4979686;28;20074;-69
2022/09/16 13:00:16;;;;;;;17.00;3.05;;;15.80;83.30;;;;;;4953109;28;20058;-69
2022/09/16 13:03:14;;;;;;;14.98;3.10;;;16.00;73.90;;;;;;4946503;28;20099;-68
2022/09/16 13:05:46;;;;;;;15.90;2.78;;;16.00;77.10;;;;;;4972565;28;20057;-69
2022/09/16 13:08:22;;;;;;;20.08;3.75;;;16.00;63.20;;;;;;4964684;28;20173;-68
2022/09/16 13:11:02;;;;;;;12.60;2.88;;;15.90;74.20;;;;;;4959027;28;20054;-69
2022/09/16 13:13:45;;;;;;;9.77;2.40;;;15.60;83.50;;;;;;4933774;28;20492;-69
2022/09/16 13:16:11;;;;;;;7.78;1.80;;;15.40;85.90;;;;;;4953279;28;20065;-68